Time;durP1;ratioP1;P1;durP2;ratioP2;P2;SDS_P1;SDS_P2;PMS_P1;PMS_P2;Temp;Humidity;BMP_temperature;BMP_pressure;BME280_temperature;BME280_humidity;BME280_pressure;Samples;Min_cycle;Max_cycle;Signal;HPM_P1;HPM_P2
2022/05/17 00:08:24;;;;;;;9.02;5.00;;;;;;;15.60;100.00;100841.78;20941461;28;20415;-69
2022/05/17 00:18:25;;;;;;;9.63;5.35;;;;;;;15.51;100.00;100842.03;20941419;28;20409;-69
2022/05/17 00:28:27;;;;;;;8.82;5.45;;;;;;;15.36;100.00;100847.75;20941642;28;20467;-69
2022/05/17 00:38:29;;;;;;;10.95;5.55;;;;;;;15.22;100.00;100834.97;20940977;28;20040;-69
2022/05/17 00:48:30;;;;;;;9.38;5.30;;;;;;;15.17;100.00;100846.53;20940802;28;20451;-69
2022/05/17 00:58:43;;;;;;;7.97;4.95;;;;;;;15.03;100.00;100845.16;20940992;28;20565;-70
2022/05/17 01:08:45;;;;;;;9.32;5.35;;;;;;;14.97;100.00;100847.09;20949741;28;20041;-70
2022/05/17 01:18:46;;;;;;;12.65;6.20;;;;;;;14.84;100.00;100849.19;20955854;28;20048;-68
2022/05/17 01:28:48;;;;;;;8.27;5.50;;;;;;;14.74;100.00;100845.91;20953122;28;20060;-69
2022/05/17 01:38:51;;;;;;;10.23;5.95;;;;;;;14.62;100.00;100844.47;20954086;28;20045;-70
2022/05/17 01:48:53;;;;;;;11.32;6.22;;;;;;;14.60;100.00;100845.41;20953278;28;20106;-70
2022/05/17 01:58:55;;;;;;;9.00;5.97;;;;;;;14.52;100.00;100837.69;20951601;28;20083;-70
2022/05/17 02:08:57;;;;;;;10.90;6.15;;;;;;;14.40;100.00;100843.22;20950743;28;20075;-70
2022/05/17 02:18:58;;;;;;;10.27;6.05;;;;;;;14.19;100.00;100843.75;20950826;28;20489;-69
2022/05/17 02:29:00;;;;;;;7.85;5.50;;;;;;;14.03;100.00;100859.88;20949808;28;20059;-69
2022/05/17 02:39:01;;;;;;;11.20;6.47;;;;;;;13.84;100.00;100859.41;20949194;28;20057;-68
2022/05/17 02:49:07;;;;;;;13.10;6.60;;;;;;;13.73;100.00;100871.09;20948626;28;20044;-69
2022/05/17 02:59:08;;;;;;;12.82;7.50;;;;;;;13.57;100.00;100871.41;20943984;28;20533;-69
2022/05/17 03:09:11;;;;;;;10.07;7.18;;;;;;;13.49;100.00;100875.09;20945388;28;20063;-69
2022/05/17 03:19:13;;;;;;;9.90;6.75;;;;;;;13.53;100.00;100885.53;20942957;28;20417;-69
2022/05/17 03:29:14;;;;;;;11.10;6.63;;;;;;;13.65;100.00;100894.06;20942519;28;20079;-68
2022/05/17 03:39:16;;;;;;;9.82;6.45;;;;;;;13.67;100.00;100900.19;20943512;28;20079;-69
2022/05/17 03:49:17;;;;;;;10.77;6.85;;;;;;;13.63;100.00;100907.25;20944114;28;20054;-69
2022/05/17 03:59:19;;;;;;;12.63;6.05;;;;;;;13.57;100.00;100908.25;20943519;28;20056;-69
2022/05/17 04:09:20;;;;;;;11.35;6.38;;;;;;;13.66;100.00;100915.09;20942569;28;20106;-69
2022/05/17 04:19:22;;;;;;;9.43;5.75;;;;;;;13.77;100.00;100914.88;20942593;28;20048;-69
2022/05/17 04:29:23;;;;;;;12.38;7.30;;;;;;;14.02;100.00;100910.81;20942085;28;20049;-70
2022/05/17 04:39:25;;;;;;;11.13;7.50;;;;;;;14.50;100.00;100918.53;20950633;28;20113;-70
2022/05/17 04:49:26;;;;;;;10.80;6.85;;;;;;;14.90;100.00;100928.13;20968625;28;20052;-70
2022/05/17 04:59:28;;;;;;;11.85;7.30;;;;;;;15.12;100.00;100937.22;20968485;28;20048;-70
2022/05/17 05:09:29;;;;;;;9.63;6.30;;;;;;;15.36;100.00;100948.03;20966514;28;20052;-69
2022/05/17 05:19:31;;;;;;;11.45;6.53;;;;;;;15.91;100.00;100946.53;20965365;28;20421;-70
2022/05/17 05:29:33;;;;;;;13.48;6.85;;;;;;;16.15;100.00;100951.09;20966409;28;20517;-70
2022/05/17 05:39:35;;;;;;;11.90;7.75;;;;;;;16.30;100.00;100948.91;20965617;28;20551;-70
2022/05/17 05:49:36;;;;;;;13.20;7.50;;;;;;;16.51;100.00;100955.28;20961944;28;20406;-70
2022/05/17 05:59:38;;;;;;;11.82;8.00;;;;;;;16.78;100.00;100969.47;20953298;28;20052;-70
2022/05/17 06:09:39;;;;;;;12.77;7.72;;;;;;;17.22;100.00;100964.47;20951905;28;20053;-70
2022/05/17 06:19:41;;;;;;;11.00;6.55;;;;;;;17.54;98.67;100964.22;20952220;28;20067;-70
2022/05/17 06:29:42;;;;;;;10.15;6.82;;;;;;;17.78;96.86;100967.81;20950453;28;20508;-71
2022/05/17 06:39:45;;;;;;;10.50;6.70;;;;;;;18.02;94.36;100966.03;20939730;28;20060;-69
2022/05/17 06:49:47;;;;;;;12.70;6.35;;;;;;;18.22;92.97;100969.72;20948451;28;20084;-68
2022/05/17 06:59:48;;;;;;;12.60;6.22;;;;;;;18.88;89.58;100965.34;20940909;28;20048;-68
2022/05/17 07:13:07;;;;;;;11.93;5.72;;;;;;;19.18;89.66;100966.72;20930828;28;20060;-69
2022/05/17 07:20:12;;;;;;;9.75;5.18;;;;;;;19.52;85.67;100970.56;20942600;28;20487;-69
2022/05/17 07:30:14;;;;;;;9.30;4.63;;;;;;;20.15;84.32;100955.31;20937168;28;20056;-69
2022/05/17 07:40:17;;;;;;;10.60;5.28;;;;;;;20.82;83.67;100945.09;20937638;28;20413;-69
2022/05/17 07:50:19;;;;;;;7.72;5.03;;;;;;;21.48;76.84;100945.28;20939221;28;20055;-64
2022/05/17 08:00:20;;;;;;;10.93;6.30;;;;;;;21.90;75.09;100941.28;20935836;28;20049;-65
2022/05/17 08:10:22;;;;;;;9.57;5.38;;;;;;;22.09;72.96;100955.34;20933261;28;20037;-68
2022/05/17 08:20:24;;;;;;;14.70;5.38;;;;;;;21.66;74.64;100946.97;20931018;28;20052;-67
2022/05/17 08:30:26;;;;;;;9.52;5.18;;;;;;;21.92;74.55;100947.38;20932584;28;20040;-66
2022/05/17 08:40:30;;;;;;;14.52;5.70;;;;;;;22.09;74.29;100952.66;20927819;28;20485;-66
2022/05/17 08:50:36;;;;;;;9.90;5.77;;;;;;;21.95;73.23;100952.56;20931785;28;20053;-66
2022/05/17 09:00:44;;;;;;;9.82;5.25;;;;;;;22.53;70.24;100952.03;20931134;28;20041;-66
2022/05/17 09:11:00;;;;;;;9.20;5.78;;;;;;;22.61;70.31;100959.56;20930395;28;20053;-68
2022/05/17 09:21:02;;;;;;;12.27;5.10;;;;;;;22.98;68.01;100951.19;20924998;28;20099;-67
2022/05/17 09:31:15;;;;;;;9.95;5.22;;;;;;;23.39;65.36;100942.53;20944602;28;20048;-68
2022/05/17 09:41:22;;;;;;;10.57;3.92;;;;;;;24.05;59.68;100931.31;20941748;28;20048;-68
2022/05/17 10:01:46;;;;;;;9.27;3.28;;;;;;;24.18;58.09;100909.97;20942352;28;20037;-67
2022/05/17 10:11:57;;;;;;;10.32;3.95;;;;;;;24.40;55.47;100900.59;20942006;28;20059;-67
2022/05/17 10:22:33;;;;;;;9.98;4.20;;;;;;;23.62;57.76;100894.81;20923938;28;20389;-67
2022/05/17 10:32:42;;;;;;;8.00;3.55;;;;;;;24.72;54.94;100872.56;20928303;28;20048;-67
2022/05/17 10:42:44;;;;;;;7.90;2.85;;;;;;;24.83;53.01;100875.34;20927591;28;20055;-67
2022/05/17 10:53:14;;;;;;;7.05;3.92;;;;;;;25.07;49.86;100856.78;20940656;28;20103;-67
2022/05/17 11:03:53;;;;;;;10.13;4.90;;;;;;;24.53;49.45;100856.00;20934196;28;20048;-67
2022/05/17 11:14:07;;;;;;;7.85;2.92;;;;;;;24.55;51.33;100844.22;20702726;28;20048;-68
2022/05/17 11:24:43;;;;;;;5.57;2.85;;;;;;;25.01;49.04;100834.88;20998847;28;20052;-68
2022/05/17 11:34:45;;;;;;;9.32;2.90;;;;;;;24.36;43.20;100827.66;21016863;28;20121;-68
2022/05/17 11:44:48;;;;;;;7.30;2.50;;;;;;;24.28;43.54;100830.81;21019081;28;20059;-67
2022/05/17 11:54:51;;;;;;;7.40;3.13;;;;;;;24.33;43.13;100806.41;21015810;28;20059;-68
2022/05/17 12:04:53;;;;;;;5.28;2.35;;;;;;;24.51;43.29;100807.03;21015248;28;20135;-68
2022/05/17 12:15:10;;;;;;;4.85;2.10;;;;;;;24.43;44.71;100790.63;21014927;28;20048;-68
2022/05/17 12:25:15;;;;;;;4.13;2.08;;;;;;;24.65;43.73;100785.53;21015648;28;20055;-68
2022/05/17 12:35:27;;;;;;;5.97;1.88;;;;;;;24.99;45.35;100773.34;21015113;28;20049;-69
2022/05/17 12:45:33;;;;;;;5.53;1.95;;;;;;;25.19;42.27;100755.03;21006546;28;20055;-67
2022/05/17 12:55:35;;;;;;;4.95;1.67;;;;;;;25.39;43.79;100742.88;21013418;28;20527;-67
2022/05/17 13:05:43;;;;;;;6.03;1.80;;;;;;;25.52;43.09;100733.84;21027784;28;20061;-68
2022/05/17 13:16:21;;;;;;;3.83;1.75;;;;;;;25.12;41.00;100721.63;21029034;28;20048;-66
2022/05/17 13:26:29;;;;;;;5.75;1.95;;;;;;;25.26;41.81;100711.63;21023632;28;20048;-66
2022/05/17 13:36:41;;;;;;;4.32;1.52;;;;;;;25.22;40.93;100711.94;21026681;28;20058;-67
2022/05/17 13:46:48;;;;;;;3.97;1.30;;;;;;;25.63;36.39;100698.19;21028373;28;20053;-67
2022/05/17 13:56:53;;;;;;;5.30;1.23;;;;;;;25.78;37.29;100685.53;21028250;28;20237;-67
2022/05/17 14:07:00;;;;;;;2.90;1.10;;;;;;;25.94;35.71;100679.84;21027568;28;20101;-68
2022/05/17 14:17:26;;;;;;;3.20;1.20;;;;;;;26.10;37.32;100658.91;21022859;28;20051;-68
2022/05/17 14:27:27;;;;;;;2.92;0.90;;;;;;;26.33;35.84;100659.84;21024352;28;20049;-67
2022/05/17 14:37:29;;;;;;;2.78;0.90;;;;;;;26.24;33.22;100645.28;21024105;28;20044;-67
2022/05/17 14:47:30;;;;;;;2.40;0.88;;;;;;;26.33;35.16;100649.09;21019022;28;20468;-67
2022/05/17 14:57:33;;;;;;;4.18;1.25;;;;;;;26.32;36.60;100632.13;21022266;28;20043;-67
2022/05/17 15:07:37;;;;;;;3.00;1.08;;;;;;;26.21;36.66;100618.72;21021609;28;20048;-68
2022/05/17 15:17:40;;;;;;;3.22;1.10;;;;;;;26.55;34.75;100629.53;21021594;28;20073;-68
2022/05/17 15:27:43;;;;;;;3.07;1.10;;;;;;;26.71;35.40;100621.94;21014997;28;20059;-68
2022/05/17 15:37:44;;;;;;;3.10;0.95;;;;;;;26.55;34.64;100619.63;21018093;28;20678;-68
2022/05/17 15:58:09;;;;;;;5.33;2.27;;;;;;;26.42;31.22;100618.00;21014912;28;20044;-67
2022/05/17 16:08:12;;;;;;;1.73;0.80;;;;;;;26.61;32.05;100615.59;21016486;28;20127;-67
2022/05/17 16:18:33;;;;;;;3.13;1.10;;;;;;;26.60;35.62;100603.16;21014663;28;20048;-68
2022/05/17 16:28:34;;;;;;;2.10;0.95;;;;;;;26.53;35.31;100612.66;21013825;28;20048;-68
2022/05/17 16:38:37;;;;;;;3.78;1.10;;;;;;;26.63;32.22;100600.19;21012885;28;20102;-70
2022/05/17 16:48:41;;;;;;;3.75;1.00;;;;;;;26.33;33.33;100595.41;21013751;28;20051;-69
2022/05/17 16:58:44;;;;;;;4.70;1.00;;;;;;;26.40;33.81;100596.66;21014843;28;20208;-69
2022/05/17 17:08:45;;;;;;;5.15;1.70;;;;;;;26.52;34.27;100595.69;21012519;28;20064;-69
2022/05/17 17:18:48;;;;;;;6.97;1.35;;;;;;;26.04;39.46;100595.00;21015333;28;20044;-68
2022/05/17 17:28:49;;;;;;;5.22;1.40;;;;;;;25.96;40.12;100603.63;21005022;28;20052;-69
2022/05/17 17:38:51;;;;;;;4.13;1.50;;;;;;;25.71;42.38;100601.94;21014616;28;20059;-69
2022/05/17 17:48:54;;;;;;;7.57;2.17;;;;;;;25.56;42.62;100613.81;21021880;28;20056;-71
2022/05/17 17:59:02;;;;;;;5.63;1.60;;;;;;;25.25;43.88;100620.63;21027655;28;20490;-70
2022/05/17 18:09:04;;;;;;;3.65;1.60;;;;;;;25.15;45.58;100622.22;21021957;28;20055;-69
2022/05/17 18:19:08;;;;;;;5.07;1.80;;;;;;;24.68;47.07;100632.72;21019073;28;20629;-67
2022/05/17 18:29:19;;;;;;;4.73;1.73;;;;;;;24.18;50.23;100633.53;21025995;28;20101;-68
2022/05/17 18:39:22;;;;;;;4.88;2.10;;;;;;;23.73;54.14;100641.88;21012515;28;20052;-68
2022/05/17 18:49:30;;;;;;;14.75;2.85;;;;;;;23.37;55.23;100644.28;21020935;28;20135;-67
2022/05/17 18:59:31;;;;;;;7.75;2.67;;;;;;;23.11;55.64;100648.63;21016709;28;20052;-67
2022/05/17 19:19:54;;;;;;;4.47;2.30;;;;;;;22.43;60.14;100678.66;21015298;28;20131;-66
2022/05/17 19:29:56;;;;;;;7.53;2.03;;;;;;;22.14;61.17;100681.25;21016501;28;20113;-67
2022/05/17 19:39:57;;;;;;;4.18;1.80;;;;;;;21.88;64.57;100692.53;21018597;28;20393;-68
2022/05/17 19:49:59;;;;;;;4.40;2.00;;;;;;;21.62;65.45;100704.72;21019533;28;20052;-68
2022/05/17 20:00:01;;;;;;;5.32;1.75;;;;;;;21.22;68.31;100704.22;21017943;28;20481;-66
2022/05/17 20:10:06;;;;;;;6.32;2.17;;;;;;;20.97;69.37;100720.69;21012025;28;20354;-66
2022/05/17 20:20:08;;;;;;;4.20;1.85;;;;;;;20.71;72.37;100743.38;21012895;28;20052;-66
2022/05/17 20:30:10;;;;;;;7.50;2.00;;;;;;;20.53;74.00;100739.00;20996307;28;20541;-64
2022/05/17 20:40:12;;;;;;;6.20;2.00;;;;;;;20.31;74.79;100753.34;21015219;28;20049;-64
2022/05/17 20:50:15;;;;;;;4.72;2.45;;;;;;;19.95;75.48;100753.41;21014840;28;20056;-64
2022/05/17 21:00:17;;;;;;;6.72;2.70;;;;;;;19.72;77.17;100766.00;21011819;28;20044;-65
2022/05/17 21:10:20;;;;;;;7.05;2.58;;;;;;;19.60;77.66;100757.75;21012538;28;20068;-65
2022/05/17 21:20:22;;;;;;;6.78;2.30;;;;;;;19.47;78.53;100760.09;21014766;28;20041;-65
2022/05/17 21:30:25;;;;;;;4.07;2.15;;;;;;;19.38;79.67;100756.06;21029137;28;20963;-65
2022/05/17 21:40:26;;;;;;;7.97;2.70;;;;;;;19.33;80.28;100754.56;21028934;28;20071;-65
2022/05/17 21:50:31;;;;;;;9.48;3.13;;;;;;;19.22;80.40;100750.63;21030261;28;20052;-65
2022/05/17 22:00:37;;;;;;;5.47;2.83;;;;;;;19.09;80.91;100768.03;21027789;28;20052;-65
2022/05/17 22:21:03;;;;;;;6.43;3.08;;;;;;;18.48;83.59;100778.63;21033876;28;20100;-65
2022/05/17 22:31:06;;;;;;;6.22;3.15;;;;;;;18.09;86.15;100782.00;21032680;28;20052;-65
2022/05/17 22:41:08;;;;;;;6.38;3.50;;;;;;;17.85;87.58;100789.16;21032911;28;20053;-66
2022/05/17 22:51:11;;;;;;;7.10;3.38;;;;;;;17.49;89.97;100791.44;21032177;28;20059;-65
2022/05/17 23:01:12;;;;;;;8.43;3.42;;;;;;;17.40;90.38;100787.34;21030994;28;20049;-65
2022/05/17 23:11:15;;;;;;;7.85;3.50;;;;;;;17.14;92.29;100795.38;21029957;28;20071;-65
2022/05/17 23:21:17;;;;;;;5.32;3.30;;;;;;;17.00;92.37;100795.88;21029814;28;20054;-64
2022/05/17 23:31:21;;;;;;;8.50;3.85;;;;;;;16.91;92.88;100798.84;21024147;28;20048;-65
2022/05/17 23:41:24;;;;;;;6.80;3.70;;;;;;;16.89;92.76;100803.34;21022454;28;20040;-64
2022/05/17 23:51:25;;;;;;;6.35;3.33;;;;;;;16.71;93.66;100801.28;21026908;28;20052;-64
